createdAt,value
2022-08-18T00:00:52.195Z,17.76
2022-08-18T00:04:03.281Z,17.74
2022-08-18T00:07:08.067Z,17.76
2022-08-18T00:10:17.894Z,17.80
2022-08-18T00:13:20.645Z,17.83
2022-08-18T00:16:22.480Z,17.89
2022-08-18T00:19:46.638Z,17.96
2022-08-18T00:22:47.326Z,18.03
2022-08-18T00:25:49.962Z,18.08
2022-08-18T00:28:51.548Z,18.12
2022-08-18T00:31:53.364Z,18.15
2022-08-18T00:34:55.212Z,18.16
2022-08-18T00:38:00.261Z,18.15
2022-08-18T00:41:02.068Z,18.16
2022-08-18T00:44:04.638Z,18.16
2022-08-18T00:47:06.433Z,18.16
2022-08-18T00:50:09.562Z,18.14
2022-08-18T00:53:35.529Z,18.12
2022-08-18T00:56:45.339Z,18.10
2022-08-18T01:00:05.385Z,18.08
2022-08-18T01:03:12.809Z,18.07
2022-08-18T01:06:33.367Z,18.05
2022-08-18T01:09:35.580Z,18.05
2022-08-18T01:12:45.611Z,18.02
2022-08-18T01:15:48.125Z,17.99
2022-08-18T01:19:08.327Z,17.96
2022-08-18T01:22:28.823Z,17.89
2022-08-18T01:25:50.861Z,17.86
2022-08-18T01:28:54.122Z,17.83
2022-08-18T01:31:56.374Z,17.82
2022-08-18T01:34:59.275Z,17.82
2022-08-18T01:38:00.805Z,17.82
2022-08-18T01:41:28.656Z,17.81
2022-08-18T01:44:24.133Z,17.76
2022-08-18T01:47:25.746Z,17.70
2022-08-18T01:50:27.400Z,17.66
2022-08-18T01:53:29.199Z,17.61
2022-08-18T01:56:30.861Z,17.54
2022-08-18T01:59:32.486Z,17.49
2022-08-18T02:02:34.277Z,17.45
2022-08-18T02:05:44.305Z,17.40
2022-08-18T02:08:53.548Z,17.36
2022-08-18T02:11:56.285Z,17.31
2022-08-18T02:14:58.010Z,17.26
2022-08-18T02:17:59.568Z,17.21
2022-08-18T02:21:10.353Z,17.16
2022-08-18T02:24:12.162Z,17.11
2022-08-18T02:27:15.520Z,17.06
2022-08-18T02:30:18.724Z,17.03
2022-08-18T02:33:20.379Z,17.00
2022-08-18T02:36:23.975Z,16.98
2022-08-18T02:39:27.884Z,16.94
2022-08-18T02:42:30.393Z,16.90
2022-08-18T02:45:32.833Z,16.86
2022-08-18T02:48:35.206Z,16.80
2022-08-18T02:51:36.828Z,16.74
2022-08-18T02:54:38.776Z,16.71
2022-08-18T02:57:46.698Z,16.69
2022-08-18T03:00:48.640Z,16.68
2022-08-18T03:03:50.594Z,16.69
2022-08-18T03:06:52.373Z,16.72
2022-08-18T03:09:53.917Z,16.73
2022-08-18T03:12:55.509Z,16.73
2022-08-18T03:15:57.752Z,16.74
2022-08-18T03:19:01.571Z,16.77
2022-08-18T03:22:04.343Z,16.79
2022-08-18T03:25:25.980Z,16.82
2022-08-18T03:28:28.721Z,16.85
2022-08-18T03:31:31.489Z,16.87
2022-08-18T03:34:33.124Z,16.91
2022-08-18T03:37:34.713Z,16.96
2022-08-18T03:40:37.202Z,16.99
2022-08-18T03:43:50.708Z,17.01
2022-08-18T03:46:53.119Z,17.04
2022-08-18T03:49:54.673Z,17.06
2022-08-18T03:52:59.480Z,17.09
2022-08-18T03:56:01.331Z,17.14
2022-08-18T03:59:07.842Z,17.17
2022-08-18T04:02:11.453Z,17.21
2022-08-18T04:05:14.590Z,17.24
2022-08-18T04:08:16.701Z,17.27
2022-08-18T04:11:18.254Z,17.31
2022-08-18T04:14:22.215Z,17.35
2022-08-18T04:17:24.873Z,17.38
2022-08-18T04:20:26.660Z,17.42
2022-08-18T04:23:28.308Z,17.45
2022-08-18T04:26:37.045Z,17.48
2022-08-18T04:29:38.776Z,17.52
2022-08-18T04:32:40.438Z,17.54
2022-08-18T04:35:42.086Z,17.58
2022-08-18T04:38:44.696Z,17.60
2022-08-18T04:41:46.306Z,17.61
2022-08-18T04:44:47.877Z,17.61
2022-08-18T04:47:49.512Z,17.63
2022-08-18T04:50:51.069Z,17.65
2022-08-18T04:53:52.957Z,17.65
2022-08-18T04:56:55.145Z,17.69
2022-08-18T04:59:58.215Z,17.71
2022-08-18T05:03:00.345Z,17.72
2022-08-18T05:06:04.767Z,17.73
2022-08-18T05:09:09.009Z,17.72
2022-08-18T05:12:14.207Z,17.75
2022-08-18T05:15:17.720Z,17.75
2022-08-18T05:18:20.309Z,17.74
2022-08-18T05:21:23.753Z,17.73
2022-08-18T05:24:32.193Z,17.81
2022-08-18T05:27:38.244Z,17.96
2022-08-18T05:30:41.289Z,18.08
2022-08-18T05:33:43.832Z,18.15
2022-08-18T05:36:59.217Z,18.17
2022-08-18T05:40:11.384Z,18.19
2022-08-18T05:43:15.294Z,18.23
2022-08-18T05:46:17.497Z,18.29
2022-08-18T05:49:25.960Z,18.35
2022-08-18T05:52:38.510Z,18.37
2022-08-18T05:56:05.180Z,18.38
2022-08-18T05:59:07.725Z,18.41
2022-08-18T06:02:18.328Z,18.41
2022-08-18T06:05:26.889Z,18.41
2022-08-18T06:08:53.253Z,18.44
2022-08-18T06:12:05.276Z,18.48
2022-08-18T06:15:18.137Z,18.49
2022-08-18T06:18:54.290Z,18.52
2022-08-18T06:22:07.763Z,18.54
2022-08-18T06:25:18.731Z,18.60
2022-08-18T06:28:22.125Z,18.63
2022-08-18T06:31:37.158Z,18.65
2022-08-18T06:35:04.605Z,18.69
2022-08-18T06:38:38.787Z,18.72
2022-08-18T06:41:49.072Z,18.79
2022-08-18T06:45:01.116Z,18.87
2022-08-18T06:48:19.093Z,18.94
2022-08-18T06:51:23.139Z,19.00
2022-08-18T06:54:30.024Z,19.03
2022-08-18T06:57:35.446Z,19.04
2022-08-18T07:00:42.339Z,19.07
2022-08-18T07:03:56.593Z,19.13
2022-08-18T07:06:58.374Z,19.18
2022-08-18T07:10:00.538Z,19.22
2022-08-18T07:13:08.506Z,19.25
2022-08-18T07:16:40.563Z,19.27
2022-08-18T07:19:56.684Z,19.31
2022-08-18T07:23:08.066Z,19.36
2022-08-18T07:26:10.171Z,19.38
2022-08-18T07:29:15.974Z,19.42
2022-08-18T07:32:21.998Z,19.43
2022-08-18T07:35:35.564Z,19.45
2022-08-18T07:38:54.002Z,19.47
2022-08-18T07:42:06.588Z,19.53
2022-08-18T07:45:37.291Z,19.57
2022-08-18T07:48:40.018Z,19.62
2022-08-18T07:52:04.998Z,19.69
2022-08-18T07:55:16.838Z,19.72
2022-08-18T07:58:27.404Z,19.77
2022-08-18T08:01:54.894Z,19.81
2022-08-18T08:05:44.390Z,19.81
2022-08-18T08:08:59.137Z,19.79
2022-08-18T08:12:37.863Z,19.81
2022-08-18T08:16:23.886Z,19.82
2022-08-18T08:19:59.410Z,19.86
2022-08-18T08:23:22.082Z,19.88
2022-08-18T08:26:41.174Z,19.87
2022-08-18T08:30:05.525Z,19.86
2022-08-18T08:33:16.032Z,19.87
2022-08-18T08:36:30.480Z,19.94
2022-08-18T08:39:57.878Z,20.04
2022-08-18T08:43:18.244Z,20.12
2022-08-18T08:46:30.083Z,20.17
2022-08-18T08:49:39.231Z,20.21
2022-08-18T08:52:44.802Z,20.26
2022-08-18T08:55:51.186Z,20.32
2022-08-18T08:58:59.233Z,20.36
2022-08-18T09:02:15.950Z,20.42
2022-08-18T09:05:29.115Z,20.49
2022-08-18T09:08:39.287Z,20.56
2022-08-18T09:12:13.380Z,20.66
2022-08-18T09:15:34.139Z,20.70
2022-08-18T09:18:54.458Z,20.75
2022-08-18T09:22:11.973Z,20.81
2022-08-18T09:25:38.352Z,20.86
2022-08-18T09:28:56.551Z,20.91
2022-08-18T09:32:20.298Z,20.99
2022-08-18T09:35:54.644Z,21.06
2022-08-18T09:39:54.903Z,21.20
2022-08-18T09:43:11.353Z,21.31
2022-08-18T09:46:13.688Z,21.37
2022-08-18T09:49:26.657Z,21.38
2022-08-18T09:56:01.306Z,21.35
2022-08-18T09:59:10.766Z,21.36
2022-08-18T10:02:33.848Z,21.36
2022-08-18T10:05:40.105Z,21.35
2022-08-18T10:09:26.758Z,21.34
2022-08-18T10:12:56.614Z,21.41
2022-08-18T10:16:11.021Z,21.66
2022-08-18T10:19:39.843Z,21.93
2022-08-18T10:22:49.188Z,22.08
2022-08-18T10:25:55.244Z,22.13
2022-08-18T10:29:04.108Z,22.20
2022-08-18T10:32:08.381Z,22.30
2022-08-18T10:35:37.721Z,22.49
2022-08-18T10:38:46.122Z,22.65
2022-08-18T10:41:58.599Z,22.82
2022-08-18T10:45:24.591Z,22.96
2022-08-18T10:48:30.450Z,23.03
2022-08-18T10:52:00.594Z,23.05
2022-08-18T10:55:14.574Z,23.02
2022-08-18T10:58:40.691Z,23.06
2022-08-18T11:02:16.240Z,23.07
2022-08-18T11:05:22.361Z,23.07
2022-08-18T11:08:25.018Z,23.13
2022-08-18T11:12:01.791Z,23.24
2022-08-18T11:15:22.788Z,23.28
2022-08-18T11:18:44.023Z,23.28
2022-08-18T11:21:51.127Z,23.22
2022-08-18T11:24:56.309Z,23.16
2022-08-18T11:27:59.678Z,23.13
2022-08-18T11:31:02.682Z,23.15
2022-08-18T11:34:19.683Z,23.14
2022-08-18T11:37:49.279Z,23.09
2022-08-18T11:41:12.084Z,23.06
2022-08-18T11:44:19.997Z,23.02
2022-08-18T11:47:23.640Z,22.96
2022-08-18T11:50:32.030Z,22.88
2022-08-18T11:53:33.654Z,22.83
2022-08-18T11:56:38.479Z,22.82
2022-08-18T11:59:54.593Z,22.84
2022-08-18T12:03:28.410Z,22.87
2022-08-18T12:06:32.305Z,22.89
2022-08-18T12:13:08.547Z,22.88
2022-08-18T12:16:33.325Z,22.84
2022-08-18T12:19:35.028Z,22.88
2022-08-18T12:22:38.997Z,22.94
2022-08-18T12:25:40.631Z,22.96
2022-08-18T12:28:42.268Z,22.95
2022-08-18T12:31:48.245Z,22.91
2022-08-18T12:34:50.942Z,22.84
2022-08-18T12:38:05.050Z,22.80
2022-08-18T12:41:18.613Z,22.74
2022-08-18T12:44:27.322Z,22.69
2022-08-18T12:47:31.240Z,22.61
2022-08-18T12:50:42.618Z,22.53
2022-08-18T12:53:58.388Z,22.44
2022-08-18T12:57:06.691Z,22.42
2022-08-18T13:00:09.595Z,22.49
2022-08-18T13:03:19.372Z,22.58
2022-08-18T13:06:23.029Z,22.64
2022-08-18T13:09:48.141Z,22.70
2022-08-18T13:12:55.694Z,22.75
2022-08-18T13:16:03.314Z,22.74
2022-08-18T13:19:06.109Z,22.69
2022-08-18T13:22:07.830Z,22.69
2022-08-18T13:25:32.199Z,22.73
2022-08-18T13:28:56.808Z,22.72
2022-08-18T13:31:59.611Z,22.67
2022-08-18T13:35:02.518Z,22.66
2022-08-18T13:38:15.847Z,22.68
2022-08-18T13:44:26.977Z,22.78
2022-08-18T13:47:29.366Z,22.85
2022-08-18T13:50:31.804Z,22.88
2022-08-18T13:53:37.534Z,22.85
2022-08-18T13:56:53.482Z,22.78
2022-08-18T13:59:55.094Z,22.75
2022-08-18T14:02:58.841Z,22.76
2022-08-18T14:06:02.890Z,22.76
2022-08-18T14:09:19.335Z,22.69
2022-08-18T14:12:28.194Z,22.60
2022-08-18T14:15:36.365Z,22.58
2022-08-18T14:18:39.104Z,22.66
2022-08-18T14:22:02.567Z,22.74
2022-08-18T14:25:23.237Z,22.81
2022-08-18T14:28:25.593Z,22.88
2022-08-18T14:31:27.381Z,22.91
2022-08-18T14:34:29.747Z,22.94
2022-08-18T14:37:32.024Z,23.01
2022-08-18T14:40:37.245Z,23.02
2022-08-18T14:44:11.323Z,23.02
2022-08-18T14:47:07.333Z,22.98
2022-08-18T14:50:13.384Z,22.95
2022-08-18T14:53:20.622Z,22.83
2022-08-18T14:56:22.227Z,22.72
2022-08-18T14:59:28.438Z,22.63
2022-08-18T15:02:30.563Z,22.52
2022-08-18T15:05:33.929Z,22.43
2022-08-18T15:08:37.369Z,22.34
2022-08-18T15:11:38.995Z,22.26
2022-08-18T15:14:43.385Z,22.17
2022-08-18T15:17:52.601Z,22.10
2022-08-18T15:21:34.798Z,22.01
2022-08-18T15:24:53.271Z,21.89
2022-08-18T15:27:54.843Z,21.83
2022-08-18T15:34:20.592Z,21.88
2022-08-18T15:37:24.301Z,21.89
2022-08-18T15:40:30.847Z,21.88
2022-08-18T15:43:45.912Z,21.86
2022-08-18T15:46:53.313Z,21.84
2022-08-18T15:49:55.235Z,21.80
2022-08-18T15:53:07.993Z,21.77
2022-08-18T15:56:20.984Z,21.72
2022-08-18T15:59:22.830Z,21.68
2022-08-18T16:02:34.838Z,21.68
2022-08-18T16:05:52.692Z,21.75
2022-08-18T16:08:55.125Z,21.80
2022-08-18T16:12:00.235Z,21.83
2022-08-18T16:15:04.141Z,21.83
2022-08-18T16:18:10.663Z,21.79
2022-08-18T16:21:15.723Z,21.73
2022-08-18T16:24:18.403Z,21.68
2022-08-18T16:27:20.505Z,21.59
2022-08-18T16:30:24.481Z,21.51
2022-08-18T16:33:26.772Z,21.48
2022-08-18T16:36:28.469Z,21.47
2022-08-18T16:39:33.728Z,21.43
2022-08-18T16:42:35.858Z,21.39
2022-08-18T16:45:38.400Z,21.38
2022-08-18T16:48:40.645Z,21.35
2022-08-18T16:51:46.568Z,21.27
2022-08-18T16:54:48.495Z,21.23
2022-08-18T16:58:18.125Z,21.15
2022-08-18T17:01:48.590Z,21.08
2022-08-18T17:04:53.994Z,20.98
2022-08-18T17:07:55.556Z,20.90
2022-08-18T17:10:57.908Z,20.83
2022-08-18T17:14:01.746Z,20.76
2022-08-18T17:17:05.735Z,20.71
2022-08-18T17:20:10.994Z,20.71
2022-08-18T17:23:13.289Z,20.68
2022-08-18T17:27:25.713Z,20.67
2022-08-18T17:30:32.264Z,20.68
2022-08-18T17:33:37.350Z,20.67
2022-08-18T17:36:53.831Z,20.65
2022-08-18T17:40:02.296Z,20.64
2022-08-18T17:43:05.717Z,20.64
2022-08-18T17:46:10.364Z,20.61
2022-08-18T17:49:47.241Z,20.60
2022-08-18T17:52:54.323Z,20.54
2022-08-18T17:56:05.415Z,20.50
2022-08-18T17:59:45.838Z,20.48
2022-08-18T18:02:33.924Z,20.46
2022-08-18T18:05:44.286Z,20.43
2022-08-18T18:08:58.170Z,20.41
2022-08-18T18:12:23.403Z,20.39
2022-08-18T18:15:31.618Z,20.35
2022-08-18T18:18:42.847Z,20.40
2022-08-18T18:21:55.284Z,20.43
2022-08-18T18:25:06.626Z,20.37
2022-08-18T18:28:26.193Z,20.31
2022-08-18T18:31:30.350Z,20.27
2022-08-18T18:34:39.555Z,20.23
2022-08-18T18:37:55.404Z,20.20
2022-08-18T18:41:21.989Z,20.14
2022-08-18T18:44:29.717Z,20.10
2022-08-18T18:48:03.690Z,20.04
2022-08-18T18:51:12.846Z,19.99
2022-08-18T18:54:33.011Z,19.92
2022-08-18T18:58:06.978Z,19.84
2022-08-18T19:01:21.261Z,19.79
2022-08-18T19:04:49.489Z,19.75
2022-08-18T19:07:57.483Z,19.68
2022-08-18T19:11:41.259Z,19.63
2022-08-18T19:14:59.569Z,19.53
2022-08-18T19:18:13.342Z,19.45
2022-08-18T19:22:04.168Z,19.38
2022-08-18T19:25:18.469Z,19.30
2022-08-18T19:29:08.981Z,19.25
2022-08-18T19:32:16.406Z,19.20
2022-08-18T19:35:35.357Z,19.12
2022-08-18T19:39:02.434Z,19.04
2022-08-18T19:42:12.867Z,18.99
2022-08-18T19:45:32.428Z,18.98
2022-08-18T19:48:53.680Z,18.94
2022-08-18T19:52:02.918Z,18.92
2022-08-18T19:55:42.188Z,18.89
2022-08-18T19:59:18.284Z,18.86
2022-08-18T20:02:55.740Z,18.81
2022-08-18T20:06:33.465Z,18.76
2022-08-18T20:09:40.714Z,18.71
2022-08-18T20:12:58.130Z,18.66
2022-08-18T20:16:11.360Z,18.60
2022-08-18T20:20:05.242Z,18.58
2022-08-18T20:23:30.359Z,18.53
2022-08-18T20:26:40.666Z,18.51
2022-08-18T20:29:46.217Z,18.44
2022-08-18T20:33:03.292Z,18.35
2022-08-18T20:36:11.949Z,18.28
2022-08-18T20:39:32.754Z,18.22
2022-08-18T20:42:35.275Z,18.15
2022-08-18T20:45:36.956Z,18.07
2022-08-18T20:49:06.159Z,18.04
2022-08-18T20:52:29.555Z,17.97
2022-08-18T20:55:36.277Z,17.92
2022-08-18T20:58:47.766Z,17.88
2022-08-18T21:02:05.799Z,17.83
2022-08-18T21:05:10.548Z,17.75
2022-08-18T21:08:31.028Z,17.66
2022-08-18T21:11:44.885Z,17.61
2022-08-18T21:14:52.073Z,17.58
2022-08-18T21:18:17.396Z,17.57
2022-08-18T21:21:27.162Z,17.51
2022-08-18T21:24:39.120Z,17.42
2022-08-18T21:27:44.210Z,17.37
2022-08-18T21:30:56.305Z,17.33
2022-08-18T21:34:36.319Z,17.25
2022-08-18T21:37:41.562Z,17.23
2022-08-18T21:40:48.393Z,17.21
2022-08-18T21:43:52.410Z,17.19
2022-08-18T21:47:05.773Z,17.17
2022-08-18T21:50:08.519Z,17.14
2022-08-18T21:53:13.254Z,17.12
2022-08-18T21:56:31.681Z,17.12
2022-08-18T21:59:33.361Z,17.13
2022-08-18T22:02:35.096Z,17.10
2022-08-18T22:05:57.798Z,17.11
2022-08-18T22:09:26.936Z,17.10
2022-08-18T22:12:51.560Z,17.07
2022-08-18T22:15:53.440Z,17.14
2022-08-18T22:19:10.004Z,17.21
2022-08-18T22:22:30.348Z,17.35
2022-08-18T22:25:32.414Z,17.38
2022-08-18T22:28:36.797Z,17.38
2022-08-18T22:31:44.352Z,17.35
2022-08-18T22:34:45.908Z,17.30
2022-08-18T22:37:50.691Z,17.26
2022-08-18T22:40:52.708Z,17.23
2022-08-18T22:43:55.464Z,17.19
2022-08-18T22:46:57.274Z,17.16
2022-08-18T22:49:59.880Z,17.13
2022-08-18T22:53:02.950Z,17.11
2022-08-18T22:56:07.203Z,17.11
2022-08-18T22:59:18.409Z,17.07
2022-08-18T23:02:22.322Z,17.05
2022-08-18T23:05:24.777Z,17.04
2022-08-18T23:08:55.241Z,17.04
2022-08-18T23:11:48.253Z,17.02
2022-08-18T23:14:50.239Z,17.01
2022-08-18T23:17:52.686Z,17.00
2022-08-18T23:20:59.842Z,16.97
2022-08-18T23:24:01.467Z,16.97
2022-08-18T23:27:05.612Z,16.97
2022-08-18T23:30:08.598Z,16.96
2022-08-18T23:33:10.755Z,16.96
2022-08-18T23:36:12.484Z,16.95
2022-08-18T23:39:14.518Z,16.95
2022-08-18T23:42:16.528Z,16.95
2022-08-18T23:45:19.492Z,16.95
2022-08-18T23:48:21.206Z,16.95
2022-08-18T23:51:29.433Z,16.95
2022-08-18T23:54:33.693Z,16.94
2022-08-18T23:57:36.161Z,16.94
